Huvudsida
METAR-TAF:

METAR-TAF

Flygplatser :

Shiraz International Airport

Shiraz, Iran

latitud: 29-32N, longitud: 052-35E, höjd: 1486 m

Aktuellt väderrapport

Denna rapport gjordes för 17 minuter sedan, klockan 19:30 UTC
Stilla vind
Temperatur 9°C
Fuktighet 25%
Tryck 1023 hPa
Sikt 10 km eller mer
Inga moln under 1 500 m eller inga cumulonimbus

METAR: OISS 111930Z 00000KT CAVOK 09/M10 Q1022 A3021

Tid: 23:17 (19:47 UTC)

Väderprognos

Denna rapport gjordes för 2 timmar och 17 minuter sedan, klockan 17:30 UTC
Prognos gäller från 11 kl. 18 UTC till 12 kl. 24 UTC
Vind 6 kt från nordväst
Sikt: 8000 m

TAF: OISS 111730Z 1118/1224 32006KT 8000 NSC

Aktuella väderrapporter och prognoser från 4000 flygplatser (METAR- och TAF-rapporter).

De tillgängliga stationerna syns som gula och röda prickar på kartan.

För musen över prickarna för att se namnen på stationerna.

Klicka sedan för att få väderrapporter och prognoser.

För att ändra kartan: Klicka på de gröna knapparna med ett svart kors på för att zooma in; den gröna knappen med ett streck på för att zooma ut; eller på de gröna pilarna för angränsande kartor.


METAR-TAF: